createdAt,value
2022-09-03T00:00:25.364Z,59.20
2022-09-03T00:03:00.755Z,60.00
2022-09-03T00:05:38.346Z,59.40
2022-09-03T00:08:12.661Z,59.20
2022-09-03T00:10:47.989Z,59.70
2022-09-03T00:13:18.644Z,60.00
2022-09-03T00:15:46.767Z,59.40
2022-09-03T00:18:19.886Z,59.00
2022-09-03T00:20:52.791Z,59.20
2022-09-03T00:23:25.567Z,59.20
2022-09-03T00:25:59.620Z,59.40
2022-09-03T00:28:35.039Z,59.70
2022-09-03T00:31:11.156Z,60.10
2022-09-03T00:33:42.435Z,59.60
2022-09-03T00:36:16.033Z,59.70
2022-09-03T00:38:45.707Z,60.00
2022-09-03T00:41:25.630Z,59.80
2022-09-03T00:44:27.212Z,59.90
2022-09-03T00:47:05.682Z,60.20
2022-09-03T00:49:47.279Z,60.40
2022-09-03T00:52:23.456Z,60.30
2022-09-03T00:55:01.382Z,61.00
2022-09-03T00:57:38.297Z,60.90
2022-09-03T01:00:09.437Z,60.90
2022-09-03T01:02:49.739Z,61.00
2022-09-03T01:05:39.584Z,60.90
2022-09-03T01:08:18.976Z,61.70
2022-09-03T01:10:57.581Z,61.80
2022-09-03T01:13:31.162Z,60.70
2022-09-03T01:16:10.818Z,61.30
2022-09-03T01:18:48.135Z,61.60
2022-09-03T01:21:43.682Z,61.10
2022-09-03T01:24:31.704Z,62.20
2022-09-03T01:27:18.060Z,62.10
2022-09-03T01:29:56.325Z,61.30
2022-09-03T01:32:33.559Z,61.40
2022-09-03T01:35:07.466Z,60.80
2022-09-03T01:37:47.218Z,60.80
2022-09-03T01:40:22.730Z,60.60
2022-09-03T01:43:11.537Z,61.00
2022-09-03T01:45:53.961Z,61.50
2022-09-03T01:48:39.067Z,61.80
2022-09-03T01:51:15.641Z,61.80
2022-09-03T01:54:20.704Z,62.30
2022-09-03T01:57:34.655Z,62.20
2022-09-03T02:00:07.936Z,62.10
2022-09-03T02:02:37.396Z,62.30
2022-09-03T02:05:09.353Z,62.60
2022-09-03T02:07:40.727Z,62.60
2022-09-03T02:10:14.782Z,62.80
2022-09-03T02:12:47.954Z,62.70
2022-09-03T02:15:19.575Z,63.20
2022-09-03T02:17:50.865Z,62.80
2022-09-03T02:20:23.115Z,62.80
2022-09-03T02:22:52.251Z,62.70
2022-09-03T02:25:20.293Z,63.00
2022-09-03T02:27:50.513Z,62.40
2022-09-03T02:30:19.148Z,62.80
2022-09-03T02:32:48.940Z,62.40
2022-09-03T02:35:17.118Z,62.10
2022-09-03T02:37:45.545Z,62.10
2022-09-03T02:40:13.578Z,62.20
2022-09-03T02:42:45.033Z,62.00
2022-09-03T02:45:22.966Z,62.30
2022-09-03T02:47:56.075Z,63.20
2022-09-03T02:50:24.539Z,63.10
2022-09-03T02:52:52.935Z,63.10
2022-09-03T02:55:21.650Z,62.70
2022-09-03T02:57:49.718Z,63.20
2022-09-03T03:00:19.251Z,62.50
2022-09-03T03:02:47.468Z,63.20
2022-09-03T03:05:25.817Z,63.80
2022-09-03T03:07:56.219Z,63.60
2022-09-03T03:10:26.634Z,63.40
2022-09-03T03:12:54.954Z,64.00
2022-09-03T03:15:22.989Z,64.00
2022-09-03T03:17:51.030Z,64.20
2022-09-03T03:20:20.409Z,64.50
2022-09-03T03:22:48.449Z,64.60
2022-09-03T03:25:16.695Z,64.40
2022-09-03T03:27:45.175Z,64.30
2022-09-03T03:30:14.042Z,64.60
2022-09-03T03:32:42.078Z,64.80
2022-09-03T03:35:11.850Z,64.60
2022-09-03T03:37:41.554Z,64.50
2022-09-03T03:40:10.710Z,65.10
2022-09-03T03:42:39.262Z,65.10
2022-09-03T03:45:08.451Z,65.80
2022-09-03T03:47:36.726Z,66.20
2022-09-03T03:50:06.336Z,66.00
2022-09-03T03:52:34.381Z,66.30
2022-09-03T03:55:03.759Z,66.10
2022-09-03T03:57:32.961Z,66.10
2022-09-03T04:00:01.052Z,66.30
2022-09-03T04:02:29.204Z,66.90
2022-09-03T04:04:57.383Z,66.60
2022-09-03T04:07:27.096Z,67.40
2022-09-03T04:09:55.141Z,67.90
2022-09-03T04:12:24.748Z,68.00
2022-09-03T04:14:52.770Z,68.00
2022-09-03T04:17:25.012Z,67.70
2022-09-03T04:19:53.418Z,68.10
2022-09-03T04:22:21.768Z,68.20
2022-09-03T04:24:49.779Z,68.60
2022-09-03T04:27:17.823Z,68.40
2022-09-03T04:29:47.202Z,68.80
2022-09-03T04:32:32.686Z,68.50
2022-09-03T04:35:00.689Z,68.40
2022-09-03T04:37:28.735Z,68.50
2022-09-03T04:39:57.265Z,68.70
2022-09-03T04:42:25.345Z,69.20
2022-09-03T04:44:54.706Z,69.60
2022-09-03T04:47:22.721Z,69.60
2022-09-03T04:49:50.769Z,70.10
2022-09-03T04:52:19.489Z,70.50
2022-09-03T04:54:47.678Z,70.30
2022-09-03T04:57:15.708Z,70.60
2022-09-03T04:59:44.824Z,70.70
2022-09-03T05:02:15.620Z,70.80
2022-09-03T05:04:43.698Z,71.10
2022-09-03T05:07:11.760Z,71.10
2022-09-03T05:09:39.765Z,70.70
2022-09-03T05:12:08.673Z,71.30
2022-09-03T05:14:36.675Z,71.50
2022-09-03T05:17:04.774Z,71.90
2022-09-03T05:19:35.606Z,72.10
2022-09-03T05:22:03.634Z,72.20
2022-09-03T05:24:31.829Z,71.70
2022-09-03T05:26:59.853Z,71.50
2022-09-03T05:29:27.875Z,71.80
2022-09-03T05:31:56.023Z,71.60
2022-09-03T05:34:24.382Z,72.00
2022-09-03T05:36:53.793Z,72.10
2022-09-03T05:39:21.931Z,72.00
2022-09-03T05:41:52.380Z,71.80
2022-09-03T05:44:21.504Z,72.10
2022-09-03T05:46:49.884Z,72.10
2022-09-03T05:49:19.552Z,72.20
2022-09-03T05:51:47.574Z,72.10
2022-09-03T05:54:16.958Z,73.10
2022-09-03T05:56:44.976Z,73.30
2022-09-03T05:59:13.830Z,73.20
2022-09-03T06:01:50.410Z,73.30
2022-09-03T06:04:19.978Z,73.60
2022-09-03T06:06:50.012Z,73.60
2022-09-03T06:09:20.952Z,73.80
2022-09-03T06:11:52.609Z,74.40
2022-09-03T06:14:21.797Z,74.40
2022-09-03T06:16:52.549Z,76.10
2022-09-03T06:19:20.789Z,80.80
2022-09-03T06:21:49.522Z,83.80
2022-09-03T06:24:23.257Z,89.10
2022-09-03T06:26:54.725Z,92.60
2022-09-03T06:29:22.809Z,94.40
2022-09-03T06:31:51.406Z,95.80
2022-09-03T06:34:19.491Z,98.00
2022-09-03T06:36:47.587Z,99.90
2022-09-03T06:39:15.601Z,99.90
2022-09-03T06:41:45.918Z,99.90
2022-09-03T06:44:14.771Z,99.90
2022-09-03T06:46:47.269Z,99.90
2022-09-03T06:49:15.661Z,99.90
2022-09-03T06:51:44.343Z,99.90
2022-09-03T06:54:13.433Z,99.90
2022-09-03T06:56:43.819Z,99.90
2022-09-03T06:59:13.134Z,99.90
2022-09-03T07:01:44.243Z,99.90
2022-09-03T07:04:14.015Z,99.90
2022-09-03T07:06:43.402Z,99.90
2022-09-03T07:09:13.226Z,99.90
2022-09-03T07:11:47.255Z,99.90
2022-09-03T07:14:18.796Z,99.90
2022-09-03T07:16:47.873Z,99.90
2022-09-03T07:19:19.389Z,99.90
2022-09-03T07:21:50.538Z,99.90
2022-09-03T07:24:22.130Z,99.90
2022-09-03T07:26:50.647Z,99.90
2022-09-03T07:29:21.573Z,99.90
2022-09-03T07:31:52.575Z,99.90
2022-09-03T07:34:24.216Z,99.90
2022-09-03T07:36:54.232Z,99.90
2022-09-03T07:39:22.751Z,99.90
2022-09-03T07:41:50.983Z,99.90
2022-09-03T07:44:20.879Z,99.90
2022-09-03T07:46:50.884Z,99.90
2022-09-03T07:49:20.309Z,99.90
2022-09-03T07:51:53.963Z,99.90
2022-09-03T07:54:23.873Z,99.90
2022-09-03T07:56:51.970Z,99.90
2022-09-03T07:59:23.057Z,99.90
2022-09-03T08:01:53.011Z,99.90
2022-09-03T08:04:22.145Z,99.90
2022-09-03T08:06:50.245Z,99.90
2022-09-03T08:09:18.376Z,99.90
2022-09-03T08:11:46.913Z,99.90
2022-09-03T08:14:16.548Z,99.90
2022-09-03T08:16:48.403Z,99.90
2022-09-03T08:19:18.393Z,99.90
2022-09-03T08:21:47.355Z,99.90
2022-09-03T08:24:17.493Z,99.90
2022-09-03T08:26:51.390Z,99.90
2022-09-03T08:29:22.449Z,99.90
2022-09-03T08:31:52.769Z,99.90
2022-09-03T08:34:21.416Z,99.90
2022-09-03T08:36:50.394Z,99.90
2022-09-03T08:39:18.582Z,99.90
2022-09-03T08:42:20.693Z,99.90
2022-09-03T08:44:50.954Z,99.90
2022-09-03T08:47:24.758Z,99.90
2022-09-03T08:49:57.604Z,99.90
2022-09-03T08:52:32.413Z,99.90
2022-09-03T08:55:15.282Z,99.90
2022-09-03T08:57:47.908Z,99.90
2022-09-03T09:00:16.873Z,99.90
2022-09-03T09:03:02.724Z,99.90
2022-09-03T09:05:43.289Z,99.90
2022-09-03T09:08:20.266Z,99.90
2022-09-03T09:10:51.169Z,99.90
2022-09-03T09:13:29.021Z,99.90
2022-09-03T09:16:08.898Z,99.90
2022-09-03T09:18:49.886Z,99.90
2022-09-03T09:21:27.629Z,99.90
2022-09-03T09:24:03.682Z,99.90
2022-09-03T09:26:33.290Z,99.90
2022-09-03T09:29:06.344Z,99.90
2022-09-03T09:31:38.387Z,99.90
2022-09-03T09:34:09.452Z,99.90
2022-09-03T09:36:43.717Z,99.90
2022-09-03T09:39:15.890Z,99.90
2022-09-03T09:41:44.936Z,99.90
2022-09-03T09:44:21.633Z,99.90
2022-09-03T09:46:54.792Z,99.90
2022-09-03T09:49:33.329Z,99.90
2022-09-03T09:52:08.966Z,99.90
2022-09-03T09:54:36.988Z,99.90
2022-09-03T09:57:07.917Z,99.90
2022-09-03T09:59:38.148Z,99.90
2022-09-03T10:02:13.837Z,99.90
2022-09-03T10:04:52.003Z,99.90
2022-09-03T10:07:25.495Z,99.90
2022-09-03T10:10:02.455Z,99.90
2022-09-03T10:12:36.427Z,99.90
2022-09-03T10:15:13.004Z,99.90
2022-09-03T10:17:54.037Z,99.90
2022-09-03T10:20:33.802Z,99.90
2022-09-03T10:23:07.299Z,99.90
2022-09-03T10:25:50.374Z,99.90
2022-09-03T10:28:19.384Z,99.90
2022-09-03T10:31:11.786Z,99.90
2022-09-03T10:33:45.335Z,99.90
2022-09-03T10:36:20.962Z,99.90
2022-09-03T10:38:54.518Z,99.90
2022-09-03T10:41:35.177Z,99.90
2022-09-03T10:44:20.149Z,99.70
2022-09-03T10:46:58.842Z,99.30
2022-09-03T10:49:43.608Z,99.90
2022-09-03T10:52:22.122Z,99.90
2022-09-03T10:55:08.957Z,99.90
2022-09-03T10:57:49.510Z,99.90
2022-09-03T11:00:20.196Z,99.60
2022-09-03T11:03:23.321Z,97.60
2022-09-03T11:06:02.983Z,95.70
2022-09-03T11:08:38.217Z,94.40
2022-09-03T11:11:13.201Z,93.60
2022-09-03T11:13:47.155Z,93.50
2022-09-03T11:16:20.063Z,93.10
2022-09-03T11:18:51.270Z,94.50
2022-09-03T11:21:27.932Z,94.70
2022-09-03T11:24:09.846Z,94.80
2022-09-03T11:26:39.600Z,95.30
2022-09-03T11:29:13.959Z,94.90
2022-09-03T11:31:53.009Z,95.10
2022-09-03T11:34:32.191Z,94.70
2022-09-03T11:37:18.716Z,93.70
2022-09-03T11:39:56.947Z,92.00
2022-09-03T11:42:35.136Z,89.50
2022-09-03T11:45:36.576Z,88.30
2022-09-03T11:48:19.013Z,88.30
2022-09-03T11:50:54.469Z,89.30
2022-09-03T11:53:30.151Z,90.20
2022-09-03T11:56:03.684Z,90.10
2022-09-03T11:58:36.394Z,86.50
2022-09-03T12:01:10.470Z,83.10
2022-09-03T12:03:46.725Z,85.00
2022-09-03T12:06:43.550Z,82.50
2022-09-03T12:09:34.225Z,85.40
2022-09-03T12:12:15.135Z,87.40
2022-09-03T12:14:57.146Z,90.20
2022-09-03T12:17:33.745Z,91.30
2022-09-03T12:20:02.010Z,91.30
2022-09-03T12:22:31.534Z,90.10
2022-09-03T12:25:12.015Z,89.00
2022-09-03T12:27:43.981Z,85.90
2022-09-03T12:30:18.202Z,84.80
2022-09-03T12:32:47.546Z,86.50
2022-09-03T12:38:08.829Z,90.90
2022-09-03T12:43:38.185Z,91.50
2022-09-03T12:46:15.139Z,91.80
2022-09-03T12:51:49.067Z,92.60
2022-09-03T12:54:19.886Z,93.10
2022-09-03T12:56:54.713Z,92.30
2022-09-03T12:59:27.211Z,93.30
2022-09-03T13:01:59.630Z,93.90
2022-09-03T13:04:30.687Z,94.80
2022-09-03T13:07:04.243Z,94.80
2022-09-03T13:09:37.421Z,94.90
2022-09-03T13:12:06.048Z,94.70
2022-09-03T13:14:47.281Z,94.40
2022-09-03T13:17:41.608Z,94.90
2022-09-03T13:20:22.945Z,95.10
2022-09-03T13:23:04.858Z,94.40
2022-09-03T13:25:39.242Z,92.40
2022-09-03T13:28:17.348Z,90.50
2022-09-03T13:30:55.247Z,85.90
2022-09-03T13:33:29.353Z,83.60
2022-09-03T13:36:03.591Z,83.20
2022-09-03T13:38:38.545Z,83.80
2022-09-03T13:41:15.062Z,85.00
2022-09-03T13:43:46.314Z,87.50
2022-09-03T13:46:22.880Z,89.40
2022-09-03T13:49:15.774Z,89.30
2022-09-03T13:51:51.625Z,88.00
2022-09-03T13:54:47.629Z,89.90
2022-09-03T13:57:25.718Z,90.20
2022-09-03T13:59:57.878Z,87.90
2022-09-03T14:02:34.463Z,86.90
2022-09-03T14:05:10.619Z,88.90
2022-09-03T14:07:58.771Z,89.80
2022-09-03T14:10:37.114Z,91.20
2022-09-03T14:13:13.613Z,91.50
2022-09-03T14:15:48.343Z,92.20
2022-09-03T14:18:31.994Z,92.80
2022-09-03T14:21:06.002Z,93.30
2022-09-03T14:23:45.538Z,93.10
2022-09-03T14:26:27.102Z,93.20
2022-09-03T14:29:15.918Z,90.60
2022-09-03T14:32:07.770Z,82.70
2022-09-03T14:34:45.293Z,72.50
2022-09-03T14:37:38.950Z,72.80
2022-09-03T14:40:16.851Z,75.60
2022-09-03T14:42:58.894Z,77.90
2022-09-03T14:45:51.859Z,80.50
2022-09-03T14:48:37.761Z,80.00
2022-09-03T14:51:23.739Z,78.00
2022-09-03T14:54:15.953Z,75.60
2022-09-03T14:56:51.514Z,72.00
2022-09-03T14:59:57.387Z,67.90
2022-09-03T15:02:49.209Z,62.70
2022-09-03T15:05:34.359Z,60.60
2022-09-03T15:08:13.109Z,62.50
2022-09-03T15:10:47.406Z,62.40
2022-09-03T15:13:19.897Z,62.40
2022-09-03T15:16:07.539Z,64.80
2022-09-03T15:18:52.495Z,68.60
2022-09-03T15:21:31.273Z,70.70
2022-09-03T15:24:08.199Z,72.90
2022-09-03T15:26:53.229Z,74.00
2022-09-03T15:29:33.457Z,76.50
2022-09-03T15:32:12.943Z,79.60
2022-09-03T15:35:05.310Z,82.00
2022-09-03T15:37:39.976Z,83.90
2022-09-03T15:40:20.943Z,87.00
2022-09-03T15:42:53.752Z,88.80
2022-09-03T15:45:35.045Z,90.50
2022-09-03T15:48:11.133Z,91.50
2022-09-03T15:50:50.136Z,92.20
2022-09-03T15:53:30.788Z,92.50
2022-09-03T15:56:14.000Z,93.40
2022-09-03T15:58:49.375Z,93.70
2022-09-03T16:01:31.042Z,94.20
2022-09-03T16:04:09.697Z,94.50
2022-09-03T16:07:03.537Z,94.70
2022-09-03T16:09:44.688Z,94.80
2022-09-03T16:12:26.800Z,95.20
2022-09-03T16:15:01.428Z,95.40
2022-09-03T16:17:35.042Z,95.80
2022-09-03T16:20:07.828Z,95.80
2022-09-03T16:22:44.646Z,96.00
2022-09-03T16:25:18.529Z,95.90
2022-09-03T16:28:07.631Z,96.00
2022-09-03T16:30:58.629Z,96.10
2022-09-03T16:33:36.576Z,96.10
2022-09-03T16:36:17.465Z,97.40
2022-09-03T16:38:54.136Z,97.70
2022-09-03T16:41:29.174Z,98.00
2022-09-03T16:44:10.038Z,98.20
2022-09-03T16:46:45.605Z,98.70
2022-09-03T16:49:38.014Z,99.40
2022-09-03T16:52:16.568Z,99.90
2022-09-03T16:55:08.642Z,99.90
2022-09-03T16:57:57.360Z,99.90
2022-09-03T17:00:37.299Z,99.90
2022-09-03T17:03:35.269Z,99.90
2022-09-03T17:06:24.878Z,99.90
2022-09-03T17:09:04.231Z,99.90
2022-09-03T17:11:43.428Z,99.90
2022-09-03T17:14:41.328Z,99.90
2022-09-03T17:17:24.148Z,99.90
2022-09-03T17:19:58.925Z,99.90
2022-09-03T17:22:39.793Z,99.90
2022-09-03T17:25:22.442Z,99.90
2022-09-03T17:27:53.021Z,99.90
2022-09-03T17:30:29.171Z,99.90
2022-09-03T17:33:34.780Z,99.90
2022-09-03T17:36:11.465Z,99.90
2022-09-03T17:39:08.010Z,99.90
2022-09-03T17:41:46.614Z,99.90
2022-09-03T17:44:22.326Z,99.90
2022-09-03T17:46:59.853Z,99.90
2022-09-03T17:49:33.663Z,99.90
2022-09-03T17:52:07.589Z,99.90
2022-09-03T17:54:41.865Z,99.90
2022-09-03T17:57:18.728Z,99.90
2022-09-03T17:59:53.141Z,99.90
2022-09-03T18:02:32.169Z,99.90
2022-09-03T18:05:09.047Z,99.90
2022-09-03T18:07:46.115Z,99.90
2022-09-03T18:10:30.490Z,99.90
2022-09-03T18:13:08.309Z,99.90
2022-09-03T18:15:49.338Z,99.90
2022-09-03T18:18:26.149Z,99.90
2022-09-03T18:21:24.387Z,99.90
2022-09-03T18:24:25.763Z,99.90
2022-09-03T18:27:21.640Z,99.90
2022-09-03T18:30:12.506Z,99.90
2022-09-03T18:32:58.094Z,99.90
2022-09-03T18:35:48.276Z,99.90
2022-09-03T18:38:42.221Z,99.90
2022-09-03T18:42:06.847Z,99.90
2022-09-03T18:45:24.867Z,99.90
2022-09-03T18:48:28.422Z,99.90
2022-09-03T18:51:21.295Z,99.90
2022-09-03T18:54:16.683Z,99.90
2022-09-03T18:57:06.460Z,99.90
2022-09-03T19:00:29.212Z,99.90
2022-09-03T19:03:38.574Z,99.90
2022-09-03T19:06:37.094Z,99.90
2022-09-03T19:09:34.588Z,99.90
2022-09-03T19:12:33.524Z,99.90
2022-09-03T19:15:26.706Z,99.90
2022-09-03T19:18:29.040Z,99.90
2022-09-03T19:21:25.113Z,99.90
2022-09-03T19:24:21.088Z,99.90
2022-09-03T19:27:45.931Z,99.90
2022-09-03T19:30:30.748Z,99.90
2022-09-03T19:33:29.095Z,99.90
2022-09-03T19:36:24.160Z,99.90
2022-09-03T19:39:22.212Z,99.90
2022-09-03T19:42:20.807Z,99.90
2022-09-03T19:45:21.732Z,99.90
2022-09-03T19:48:20.381Z,99.90
2022-09-03T19:51:18.348Z,99.90
2022-09-03T19:54:08.077Z,99.90
2022-09-03T19:56:56.299Z,99.90
2022-09-03T19:59:47.674Z,99.90
2022-09-03T20:02:33.406Z,99.90
2022-09-03T20:05:20.394Z,99.90
2022-09-03T20:08:11.139Z,99.90
2022-09-03T20:10:39.291Z,99.90
2022-09-03T20:13:10.305Z,99.90
2022-09-03T20:15:49.630Z,99.90
2022-09-03T20:18:28.014Z,99.90
2022-09-03T20:21:03.216Z,99.90
2022-09-03T20:23:37.221Z,99.90
2022-09-03T20:26:27.438Z,99.90
2022-09-03T20:29:28.187Z,99.90
2022-09-03T20:32:06.614Z,99.90
2022-09-03T20:34:46.907Z,99.90
2022-09-03T20:37:29.335Z,99.90
2022-09-03T20:40:19.488Z,99.90
2022-09-03T20:43:08.501Z,99.90
2022-09-03T20:45:50.429Z,99.90
2022-09-03T20:48:26.576Z,99.90
2022-09-03T20:50:59.594Z,99.90
2022-09-03T20:53:44.482Z,99.90
2022-09-03T20:56:21.009Z,99.90
2022-09-03T20:58:56.094Z,99.90
2022-09-03T21:01:31.921Z,99.90
2022-09-03T21:04:17.207Z,99.90
2022-09-03T21:06:50.027Z,99.90
2022-09-03T21:09:28.989Z,99.90
2022-09-03T21:12:07.090Z,99.90
2022-09-03T21:14:39.463Z,99.90
2022-09-03T21:17:30.757Z,99.90
2022-09-03T21:20:15.690Z,99.90
2022-09-03T21:22:53.314Z,99.90
2022-09-03T21:25:26.665Z,99.90
2022-09-03T21:28:00.490Z,99.90
2022-09-03T21:30:29.562Z,99.90
2022-09-03T21:33:02.385Z,99.90
2022-09-03T21:35:35.872Z,99.90
2022-09-03T21:38:07.724Z,99.90
2022-09-03T21:40:40.138Z,99.90
2022-09-03T21:43:15.959Z,99.90
2022-09-03T21:45:48.346Z,99.90
2022-09-03T21:48:22.734Z,99.90
2022-09-03T21:50:55.761Z,99.90
2022-09-03T21:53:32.727Z,99.90
2022-09-03T21:56:22.747Z,99.90
2022-09-03T21:59:08.295Z,99.90
2022-09-03T22:01:49.970Z,99.90
2022-09-03T22:04:18.122Z,99.90
2022-09-03T22:06:54.746Z,99.90
2022-09-03T22:09:29.685Z,99.90
2022-09-03T22:12:03.960Z,99.90
2022-09-03T22:14:38.412Z,99.90
2022-09-03T22:17:15.260Z,99.90
2022-09-03T22:19:44.300Z,99.90
2022-09-03T22:22:20.243Z,99.90
2022-09-03T22:24:52.223Z,99.90
2022-09-03T22:27:27.444Z,99.90
2022-09-03T22:30:05.939Z,99.90
2022-09-03T22:32:44.285Z,99.90
2022-09-03T22:35:29.123Z,99.90
2022-09-03T22:38:19.743Z,99.90
2022-09-03T22:40:52.574Z,99.90
2022-09-03T22:43:36.168Z,99.90
2022-09-03T22:46:08.229Z,99.90
2022-09-03T22:48:56.914Z,99.90
2022-09-03T22:51:26.516Z,99.90
2022-09-03T22:54:14.451Z,99.90
2022-09-03T22:56:43.403Z,99.90
2022-09-03T22:59:16.325Z,99.90
2022-09-03T23:01:48.989Z,99.90
2022-09-03T23:04:23.865Z,99.90
2022-09-03T23:07:01.621Z,99.90
2022-09-03T23:09:38.157Z,99.90
2022-09-03T23:12:11.451Z,99.90
2022-09-03T23:14:51.489Z,99.90
2022-09-03T23:20:00.012Z,99.90
2022-09-03T23:22:34.230Z,99.90
2022-09-03T23:25:09.688Z,99.90
2022-09-03T23:27:42.439Z,99.90
2022-09-03T23:30:10.770Z,99.90
2022-09-03T23:32:38.819Z,99.90
2022-09-03T23:35:17.792Z,99.90
2022-09-03T23:37:58.649Z,99.90
2022-09-03T23:40:41.427Z,99.90
2022-09-03T23:43:47.122Z,99.90
2022-09-03T23:46:20.236Z,99.90
2022-09-03T23:49:06.901Z,99.90
2022-09-03T23:51:46.439Z,99.90
2022-09-03T23:54:21.050Z,99.90
2022-09-03T23:57:08.224Z,99.90
2022-09-03T23:59:49.616Z,99.90
